createdAt,value
2018-04-01T00:00:11.284Z,10.80
2018-04-01T00:02:38.292Z,10.80
2018-04-01T00:05:06.052Z,10.80
2018-04-01T00:07:33.087Z,10.80
2018-04-01T00:10:00.085Z,10.80
2018-04-01T00:12:27.863Z,10.80
2018-04-01T00:14:55.620Z,10.80
2018-04-01T00:17:22.636Z,10.70
2018-04-01T00:19:49.625Z,10.80
2018-04-01T00:22:16.632Z,10.80
2018-04-01T00:24:43.628Z,10.80
2018-04-01T00:27:10.640Z,10.80
2018-04-01T00:29:38.407Z,10.80
2018-04-01T00:32:06.189Z,10.80
2018-04-01T00:34:33.955Z,10.90
2018-04-01T00:37:00.979Z,10.80
2018-04-01T00:39:27.976Z,10.80
2018-04-01T00:41:55.734Z,10.90
2018-04-01T00:44:22.748Z,10.90
2018-04-01T00:46:49.742Z,11.00
2018-04-01T00:49:16.757Z,11.00
2018-04-01T00:51:43.748Z,10.80
2018-04-01T00:54:11.353Z,10.90
2018-04-01T00:56:39.123Z,10.90
2018-04-01T00:59:06.141Z,10.80
2018-04-01T01:01:33.129Z,10.90
2018-04-01T01:04:00.140Z,10.70
2018-04-01T01:06:27.128Z,10.60
2018-04-01T01:08:54.143Z,10.60
2018-04-01T01:11:21.900Z,10.50
2018-04-01T01:13:48.908Z,10.50
2018-04-01T01:16:15.900Z,10.40
2018-04-01T01:18:42.903Z,10.30
2018-04-01T01:21:09.891Z,10.30
2018-04-01T01:23:36.904Z,10.30
2018-04-01T01:26:04.665Z,10.30
2018-04-01T01:28:31.657Z,10.20
2018-04-01T01:30:58.669Z,10.30
2018-04-01T01:33:25.669Z,10.30
2018-04-01T01:35:52.700Z,10.40
2018-04-01T01:38:19.683Z,10.20
2018-04-01T01:40:46.691Z,10.20
2018-04-01T01:43:13.688Z,10.10
2018-04-01T01:45:40.695Z,10.10
2018-04-01T01:48:07.695Z,10.10
2018-04-01T01:50:35.459Z,9.90
2018-04-01T01:53:02.454Z,9.80
2018-04-01T01:55:29.459Z,9.80
2018-04-01T01:57:56.439Z,9.70
2018-04-01T02:00:23.444Z,9.80
2018-04-01T02:02:50.428Z,9.80
2018-04-01T02:05:17.432Z,9.90
2018-04-01T02:07:44.432Z,9.80
2018-04-01T02:10:11.440Z,9.80
2018-04-01T02:12:39.192Z,9.80
2018-04-01T02:15:06.204Z,9.80
2018-04-01T02:17:33.196Z,9.80
2018-04-01T02:20:00.188Z,10.00
2018-04-01T02:22:27.963Z,10.00
2018-04-01T02:24:54.946Z,10.00
2018-04-01T02:27:21.955Z,10.00
2018-04-01T02:29:48.948Z,9.80
2018-04-01T02:32:15.962Z,9.80
2018-04-01T02:34:42.953Z,9.80
2018-04-01T02:37:09.971Z,9.90
2018-04-01T02:39:36.969Z,10.00
2018-04-01T02:42:03.982Z,10.10
2018-04-01T02:44:30.968Z,10.00
2018-04-01T02:46:57.976Z,9.90
2018-04-01T02:49:24.977Z,9.90
2018-04-01T02:51:51.981Z,9.70
2018-04-01T02:54:18.980Z,9.60
2018-04-01T02:56:46.011Z,9.60
2018-04-01T02:59:13.001Z,9.40
2018-04-01T03:01:39.993Z,9.40
2018-04-01T03:04:07.000Z,9.40
2018-04-01T03:06:33.992Z,9.40
2018-04-01T03:09:13.361Z,9.20
2018-04-01T03:11:40.352Z,9.20
2018-04-01T03:14:07.355Z,9.20
2018-04-01T03:16:34.347Z,9.20
2018-04-01T03:19:02.119Z,9.10
2018-04-01T03:21:29.872Z,9.10
2018-04-01T03:23:56.890Z,9.00
2018-04-01T03:26:23.881Z,9.00
2018-04-01T03:28:50.888Z,9.10
2018-04-01T03:31:18.633Z,9.10
2018-04-01T03:33:45.641Z,9.10
2018-04-01T03:36:12.628Z,9.20
2018-04-01T03:38:39.641Z,9.40
2018-04-01T03:41:06.622Z,9.30
2018-04-01T03:43:33.627Z,9.20
2018-04-01T03:46:00.616Z,9.30
2018-04-01T03:48:28.397Z,9.40
2018-04-01T03:50:55.384Z,9.30
2018-04-01T03:53:22.387Z,9.40
2018-04-01T03:55:49.371Z,9.50
2018-04-01T03:58:17.124Z,9.70
2018-04-01T04:00:44.896Z,9.70
2018-04-01T04:03:11.893Z,9.60
2018-04-01T04:05:38.899Z,9.70
2018-04-01T04:08:05.883Z,9.70
2018-04-01T04:10:33.657Z,9.70
2018-04-01T04:13:01.411Z,9.60
2018-04-01T04:15:28.413Z,9.60
2018-04-01T04:17:55.410Z,9.50
2018-04-01T04:20:22.417Z,9.40
2018-04-01T04:22:49.407Z,9.50
2018-04-01T04:25:16.412Z,9.40
2018-04-01T04:27:44.164Z,9.30
2018-04-01T04:30:11.163Z,9.20
2018-04-01T04:32:38.916Z,9.20
2018-04-01T04:35:05.930Z,9.20
2018-04-01T04:37:33.683Z,9.10
2018-04-01T04:40:00.687Z,9.00
2018-04-01T04:42:27.684Z,8.90
2018-04-01T04:44:55.457Z,8.80
2018-04-01T04:47:23.212Z,8.60
2018-04-01T04:49:50.211Z,8.60
2018-04-01T04:52:17.191Z,8.70
2018-04-01T04:54:44.208Z,8.70
2018-04-01T04:57:11.954Z,8.50
2018-04-01T04:59:38.944Z,8.50
2018-04-01T05:02:06.714Z,8.50
2018-04-01T05:04:33.703Z,8.50
2018-04-01T05:07:00.716Z,8.40
2018-04-01T05:09:27.704Z,8.30
2018-04-01T05:11:55.466Z,8.20
2018-04-01T05:14:23.219Z,8.00
2018-04-01T05:16:50.227Z,7.90
2018-04-01T05:19:17.202Z,7.90
2018-04-01T05:21:44.206Z,7.90
2018-04-01T05:24:11.495Z,7.90
2018-04-01T05:26:39.277Z,7.80
2018-04-01T05:29:07.032Z,7.80
2018-04-01T05:31:34.807Z,7.90
2018-04-01T05:34:01.804Z,7.80
2018-04-01T05:36:28.808Z,7.80
2018-04-01T05:38:55.786Z,7.90
2018-04-01T05:41:22.787Z,7.90
2018-04-01T05:43:49.770Z,8.00
2018-04-01T05:46:16.763Z,7.90
2018-04-01T05:48:44.531Z,8.00
2018-04-01T05:51:11.516Z,7.90
2018-04-01T05:53:38.515Z,8.00
2018-04-01T05:56:05.495Z,8.00
2018-04-01T05:58:32.505Z,7.90
2018-04-01T06:00:59.490Z,7.80
2018-04-01T06:03:26.504Z,7.70
2018-04-01T06:05:54.280Z,7.80
2018-04-01T06:08:22.045Z,7.80
2018-04-01T06:10:49.808Z,7.90
2018-04-01T06:13:16.811Z,7.90
2018-04-01T06:15:43.796Z,8.00
2018-04-01T06:18:10.804Z,8.20
2018-04-01T06:20:38.558Z,8.40
2018-04-01T06:23:05.564Z,8.40
2018-04-01T06:25:32.548Z,8.40
2018-04-01T06:27:59.556Z,8.40
2018-04-01T06:30:26.545Z,8.50
2018-04-01T06:32:53.536Z,8.70
2018-04-01T06:35:20.558Z,8.70
2018-04-01T06:37:47.556Z,8.70
2018-04-01T06:40:14.558Z,8.80
2018-04-01T06:42:41.543Z,8.80
2018-04-01T06:45:08.543Z,9.00
2018-04-01T06:47:35.540Z,9.00
2018-04-01T06:50:02.551Z,8.90
2018-04-01T06:52:29.540Z,8.80
2018-04-01T06:54:57.312Z,8.70
2018-04-01T06:57:25.075Z,8.70
2018-04-01T06:59:52.088Z,8.70
2018-04-01T07:02:19.075Z,8.50
2018-04-01T07:04:46.096Z,8.60
2018-04-01T07:07:13.083Z,8.60
2018-04-01T07:09:40.105Z,8.50
2018-04-01T07:12:07.097Z,8.60
2018-04-01T07:14:34.099Z,8.50
2018-04-01T07:17:01.881Z,8.60
2018-04-01T07:19:29.644Z,8.60
2018-04-01T07:21:57.420Z,8.60
2018-04-01T07:24:25.181Z,8.50
2018-04-01T07:26:52.187Z,8.50
2018-04-01T07:29:19.186Z,8.50
2018-04-01T07:31:46.195Z,8.40
2018-04-01T07:34:13.180Z,8.40
2018-04-01T07:36:40.185Z,8.50
2018-04-01T07:39:07.172Z,8.40
2018-04-01T07:41:34.181Z,8.50
2018-04-01T07:44:01.162Z,8.60
2018-04-01T07:46:28.175Z,8.60
2018-04-01T07:48:55.159Z,8.50
2018-04-01T07:51:22.135Z,8.60
2018-04-01T07:53:49.146Z,8.60
2018-04-01T07:56:16.129Z,8.50
2018-04-01T07:58:43.148Z,8.60
2018-04-01T08:01:10.131Z,8.60
2018-04-01T08:03:37.142Z,8.70
2018-04-01T08:06:04.884Z,8.80
2018-04-01T08:08:31.896Z,8.70
2018-04-01T08:10:58.879Z,8.90
2018-04-01T08:13:25.878Z,9.00
2018-04-01T08:15:52.861Z,9.10
2018-04-01T08:18:19.870Z,9.10
2018-04-01T08:20:46.863Z,8.90
2018-04-01T08:23:14.644Z,9.00
2018-04-01T08:25:42.403Z,9.00
2018-04-01T08:28:09.404Z,8.90
2018-04-01T08:30:36.415Z,9.00
2018-04-01T08:33:03.406Z,8.90
2018-04-01T08:35:30.416Z,8.90
2018-04-01T08:37:57.398Z,8.90
2018-04-01T08:40:25.177Z,9.10
2018-04-01T08:42:52.939Z,9.20
2018-04-01T08:45:19.950Z,9.20
2018-04-01T08:47:46.934Z,9.20
2018-04-01T08:50:13.946Z,9.40
2018-04-01T08:52:40.948Z,9.60
2018-04-01T08:55:07.954Z,9.60
2018-04-01T08:57:35.719Z,10.10
2018-04-01T09:00:02.734Z,10.10
2018-04-01T09:02:29.724Z,10.50
2018-04-01T09:04:56.740Z,10.60
2018-04-01T09:07:23.747Z,10.70
2018-04-01T09:09:50.748Z,10.60
2018-04-01T09:12:17.768Z,10.40
2018-04-01T09:14:44.758Z,10.40
2018-04-01T09:17:11.766Z,10.30
2018-04-01T09:19:38.758Z,10.20
2018-04-01T09:22:06.531Z,10.00
2018-04-01T09:24:34.284Z,10.10
2018-04-01T09:27:01.291Z,10.00
2018-04-01T09:29:28.282Z,10.00
2018-04-01T09:31:55.295Z,10.00
2018-04-01T09:34:22.292Z,10.00
2018-04-01T09:36:49.362Z,10.10
2018-04-01T09:39:16.314Z,10.00
2018-04-01T09:41:43.335Z,10.10
2018-04-01T09:44:10.723Z,10.10
2018-04-01T09:46:37.708Z,10.20
2018-04-01T09:49:04.716Z,10.20
2018-04-01T09:51:31.707Z,10.30
2018-04-01T09:53:58.736Z,10.40
2018-04-01T09:56:25.723Z,10.40
2018-04-01T09:58:52.732Z,10.60
2018-04-01T10:01:20.979Z,10.70
2018-04-01T10:03:48.478Z,10.70
2018-04-01T10:06:15.963Z,10.90
2018-04-01T10:08:44.258Z,11.30
2018-04-01T10:11:12.508Z,11.30
2018-04-01T10:13:40.060Z,11.30
2018-04-01T10:16:07.540Z,11.30
2018-04-01T10:18:35.044Z,11.20
2018-04-01T10:21:03.292Z,11.20
2018-04-01T10:23:30.811Z,11.10
2018-04-01T10:25:59.058Z,11.50
2018-04-01T10:28:26.547Z,11.40
2018-04-01T10:30:54.063Z,11.60
2018-04-01T10:33:21.570Z,11.80
2018-04-01T10:35:49.079Z,12.10
2018-04-01T10:38:17.332Z,11.90
2018-04-01T10:40:44.834Z,11.80
2018-04-01T10:43:13.100Z,11.60
2018-04-01T10:45:40.599Z,11.50
2018-04-01T10:48:08.848Z,10.00
2018-04-01T10:50:36.347Z,10.00
2018-04-01T10:53:04.592Z,9.60
2018-04-01T10:55:31.634Z,9.50
2018-04-01T10:57:58.623Z,9.60
2018-04-01T11:00:25.635Z,9.70
2018-04-01T11:02:52.624Z,9.70
2018-04-01T11:05:19.638Z,9.80
2018-04-01T11:07:47.406Z,10.00
2018-04-01T11:10:15.165Z,10.10
2018-04-01T11:12:42.179Z,10.10
2018-04-01T11:15:09.170Z,10.30
2018-04-01T11:17:36.174Z,10.30
2018-04-01T11:20:03.165Z,10.40
2018-04-01T11:22:30.168Z,10.40
2018-04-01T11:24:57.154Z,10.50
2018-04-01T11:27:24.163Z,10.60
2018-04-01T11:29:51.151Z,10.70
2018-04-01T11:32:18.932Z,10.60
2018-04-01T11:34:46.697Z,10.60
2018-04-01T11:37:14.480Z,10.90
2018-04-01T11:39:42.240Z,11.10
2018-04-01T11:42:09.255Z,11.00
2018-04-01T11:44:36.247Z,11.20
2018-04-01T11:47:03.268Z,11.30
2018-04-01T11:49:30.255Z,11.20
2018-04-01T11:51:57.249Z,11.00
2018-04-01T11:54:25.027Z,10.90
2018-04-01T11:56:52.045Z,10.80
2018-04-01T11:59:19.032Z,10.90
2018-04-01T12:01:46.016Z,11.00
2018-04-01T12:04:13.027Z,11.00
2018-04-01T12:06:40.023Z,11.00
2018-04-01T12:09:07.799Z,10.90
2018-04-01T12:11:35.563Z,10.80
2018-04-01T12:14:02.572Z,10.70
2018-04-01T12:16:29.555Z,10.60
2018-04-01T12:18:56.571Z,10.50
2018-04-01T12:21:23.559Z,10.40
2018-04-01T12:23:50.574Z,10.50
2018-04-01T12:26:18.336Z,10.40
2018-04-01T12:28:46.100Z,10.50
2018-04-01T12:31:13.119Z,10.40
2018-04-01T12:33:40.102Z,10.70
2018-04-01T12:36:07.112Z,11.00
2018-04-01T12:38:34.105Z,11.40
2018-04-01T12:41:01.123Z,11.60
2018-04-01T12:43:28.122Z,11.90
2018-04-01T12:45:55.131Z,11.90
2018-04-01T12:48:22.895Z,11.70
2018-04-01T12:50:49.910Z,11.70
2018-04-01T12:53:16.910Z,11.50
2018-04-01T12:55:43.927Z,11.20
2018-04-01T12:58:10.920Z,11.00
2018-04-01T13:00:37.917Z,10.80
2018-04-01T13:03:04.933Z,10.70
2018-04-01T13:05:31.936Z,10.70
2018-04-01T13:07:58.943Z,10.70
2018-04-01T13:10:25.948Z,10.70
2018-04-01T13:12:52.960Z,10.80
2018-04-01T13:15:19.968Z,10.70
2018-04-01T13:17:46.976Z,10.70
2018-04-01T13:20:13.976Z,10.80
2018-04-01T13:22:41.756Z,11.00
2018-04-01T13:25:08.748Z,10.90
2018-04-01T13:27:35.763Z,10.90
2018-04-01T13:30:02.760Z,10.90
2018-04-01T13:32:29.784Z,11.00
2018-04-01T13:34:56.771Z,10.90
2018-04-01T13:37:23.795Z,11.10
2018-04-01T13:39:51.556Z,11.10
2018-04-01T13:42:18.554Z,11.10
2018-04-01T13:44:45.568Z,10.80
2018-04-01T13:47:12.665Z,10.90
2018-04-01T13:49:39.678Z,11.00
2018-04-01T13:52:06.672Z,11.20
2018-04-01T13:54:34.438Z,11.50
2018-04-01T13:57:01.433Z,11.40
2018-04-01T13:59:28.435Z,11.50
2018-04-01T14:01:55.423Z,11.40
2018-04-01T14:04:23.213Z,11.30
2018-04-01T14:09:22.664Z,11.30
2018-04-01T14:11:49.662Z,11.30
2018-04-01T14:14:16.681Z,11.30
2018-04-01T14:16:43.675Z,11.20
2018-04-01T14:19:10.710Z,11.10
2018-04-01T14:21:37.704Z,11.00
2018-04-01T14:24:04.726Z,11.10
2018-04-01T14:26:31.711Z,11.30
2018-04-01T14:28:58.724Z,11.40
2018-04-01T14:31:25.719Z,11.40
2018-04-01T14:33:52.732Z,11.40
2018-04-01T14:36:19.723Z,11.50
2018-04-01T14:38:46.732Z,11.50
2018-04-01T14:41:14.486Z,11.60
2018-04-01T14:43:41.519Z,11.50
2018-04-01T14:46:08.508Z,11.60
2018-04-01T14:48:35.503Z,11.50
2018-04-01T14:51:03.279Z,11.40
2018-04-01T14:53:31.040Z,11.30
2018-04-01T14:55:58.853Z,11.30
2018-04-01T14:58:25.829Z,11.20
2018-04-01T15:00:52.848Z,11.20
2018-04-01T15:03:20.607Z,11.30
2018-04-01T15:05:47.617Z,11.30
2018-04-01T15:08:14.607Z,11.30
2018-04-01T15:10:41.626Z,11.40
2018-04-01T15:13:08.619Z,11.50
2018-04-01T15:15:35.641Z,11.60
2018-04-01T15:18:02.641Z,11.70
2018-04-01T15:20:29.661Z,11.70
2018-04-01T15:22:56.659Z,11.80
2018-04-01T15:25:23.673Z,11.70
2018-04-01T15:27:50.659Z,11.70
2018-04-01T15:30:17.671Z,11.70
2018-04-01T15:32:45.422Z,11.70
2018-04-01T15:35:12.443Z,11.60
2018-04-01T15:37:39.459Z,11.60
2018-04-01T15:40:07.237Z,11.50
2018-04-01T15:42:34.991Z,11.40
2018-04-01T15:45:02.067Z,11.40
2018-04-01T15:47:29.020Z,11.40
2018-04-01T15:49:56.780Z,11.30
2018-04-01T15:52:23.791Z,11.20
2018-04-01T15:54:50.779Z,11.20
2018-04-01T15:57:17.793Z,11.00
2018-04-01T15:59:44.784Z,11.00
2018-04-01T16:02:11.800Z,11.00
2018-04-01T16:04:39.555Z,10.90
2018-04-01T16:07:06.577Z,10.80
2018-04-01T16:09:33.569Z,10.80
2018-04-01T16:12:00.578Z,10.80
2018-04-01T16:14:27.571Z,10.80
2018-04-01T16:16:55.465Z,10.80
2018-04-01T16:19:22.469Z,10.90
2018-04-01T16:21:49.489Z,10.80
2018-04-01T16:24:17.265Z,10.80
2018-04-01T16:26:44.305Z,10.80
2018-04-01T16:29:11.292Z,10.80
2018-04-01T16:31:39.066Z,10.80
2018-04-01T16:34:06.867Z,10.80
2018-04-01T16:36:33.886Z,10.80
2018-04-01T16:39:00.893Z,10.80
2018-04-01T16:41:27.888Z,10.80
2018-04-01T16:43:54.909Z,10.70
2018-04-01T16:46:21.910Z,10.70
2018-04-01T16:48:48.943Z,10.60
2018-04-01T16:51:16.707Z,10.70
2018-04-01T16:53:43.725Z,10.70
2018-04-01T16:56:11.506Z,10.70
2018-04-01T16:58:39.284Z,10.60
2018-04-01T17:01:07.041Z,10.60
2018-04-01T17:03:34.065Z,10.50
2018-04-01T17:06:01.825Z,10.50
2018-04-01T17:08:28.845Z,10.40
2018-04-01T17:10:55.831Z,10.50
2018-04-01T17:13:23.593Z,10.70
2018-04-01T17:15:51.380Z,10.70
2018-04-01T17:18:18.379Z,10.70
2018-04-01T17:20:45.399Z,10.70
2018-04-01T17:23:12.388Z,10.70
2018-04-01T17:25:39.396Z,10.60
2018-04-01T17:28:07.164Z,10.50
2018-04-01T17:30:34.185Z,10.50
2018-04-01T17:33:01.185Z,10.60
2018-04-01T17:35:28.197Z,10.60
2018-04-01T17:37:55.200Z,10.60
2018-04-01T17:40:22.232Z,10.60
2018-04-01T17:42:49.236Z,10.70
2018-04-01T17:45:17.029Z,10.60
2018-04-01T17:47:44.028Z,10.60
2018-04-01T17:50:11.025Z,10.60
2018-04-01T17:52:38.802Z,10.40
2018-04-01T17:55:06.563Z,10.30
2018-04-01T17:57:33.585Z,10.30
2018-04-01T18:00:00.596Z,10.40
2018-04-01T18:02:28.380Z,10.30
2018-04-01T18:04:55.378Z,10.30
2018-04-01T18:07:22.396Z,10.20
2018-04-01T18:09:49.388Z,10.20
2018-04-01T18:12:16.406Z,10.20
2018-04-01T18:14:44.168Z,10.20
2018-04-01T18:17:11.178Z,10.10
2018-04-01T18:19:38.177Z,10.10
2018-04-01T18:22:05.212Z,10.10
2018-04-01T18:24:32.208Z,10.10
2018-04-01T18:26:59.199Z,10.00
2018-04-01T18:29:26.219Z,10.10
2018-04-01T18:31:53.220Z,10.10
2018-04-01T18:34:20.244Z,10.00
2018-04-01T18:36:48.029Z,10.00
2018-04-01T18:39:15.808Z,10.00
2018-04-01T18:41:43.577Z,10.00
2018-04-01T18:44:10.940Z,10.00
2018-04-01T18:46:38.710Z,10.00
2018-04-01T18:49:05.724Z,10.00
2018-04-01T18:51:32.720Z,10.00
2018-04-01T18:53:59.732Z,10.00
2018-04-01T18:56:26.731Z,10.00
2018-04-01T18:58:53.748Z,10.00
2018-04-01T19:01:20.757Z,10.20
2018-04-01T19:03:47.794Z,10.40
2018-04-01T19:06:14.794Z,10.30
2018-04-01T19:08:42.583Z,10.40
2018-04-01T19:11:09.587Z,10.30
2018-04-01T19:13:36.599Z,10.30
2018-04-01T19:16:04.843Z,10.30
2018-04-01T19:18:32.358Z,10.30
2018-04-01T19:20:59.851Z,10.30
2018-04-01T19:23:27.377Z,10.20
2018-04-01T19:25:55.635Z,10.00
2018-04-01T19:28:23.120Z,10.00
2018-04-01T19:30:50.619Z,9.90
2018-04-01T19:33:18.863Z,9.80
2018-04-01T19:35:46.370Z,9.80
2018-04-01T19:38:14.617Z,9.80
2018-04-01T19:40:42.120Z,9.80
2018-04-01T19:43:09.610Z,9.80
2018-04-01T19:45:37.111Z,9.90
2018-04-01T19:48:04.604Z,10.00
2018-04-01T19:50:32.128Z,9.90
2018-04-01T19:52:59.611Z,9.80
2018-04-01T19:55:27.111Z,9.80
2018-04-01T19:57:54.604Z,9.80
2018-04-01T20:00:22.108Z,9.70
2018-04-01T20:02:49.587Z,9.70
2018-04-01T20:05:17.096Z,9.70
2018-04-01T20:07:44.616Z,9.60
2018-04-01T20:10:12.124Z,9.60
2018-04-01T20:12:39.616Z,9.70
2018-04-01T20:15:07.126Z,9.70
2018-04-01T20:17:34.610Z,9.70
2018-04-01T20:20:02.122Z,9.60
2018-04-01T20:22:29.601Z,9.60
2018-04-01T20:24:57.088Z,9.70
2018-04-01T20:27:25.392Z,9.80
2018-04-01T20:29:53.630Z,9.70
2018-04-01T20:32:21.135Z,9.70
2018-04-01T20:34:49.384Z,9.70
2018-04-01T20:37:16.899Z,9.70
2018-04-01T20:39:45.149Z,9.70
2018-04-01T20:42:12.648Z,9.70
2018-04-01T20:44:40.907Z,9.60
2018-04-01T20:47:08.408Z,9.50
2018-04-01T20:49:36.656Z,9.50
2018-04-01T20:52:04.167Z,9.50
2018-04-01T20:54:32.420Z,9.40
2018-04-01T20:56:59.927Z,9.30
2018-04-01T20:59:28.179Z,9.40
2018-04-01T21:01:55.689Z,9.30
2018-04-01T21:04:23.939Z,9.30
2018-04-01T21:06:51.457Z,9.30
2018-04-01T21:09:18.947Z,9.20
2018-04-01T21:11:46.447Z,9.20
2018-04-01T21:14:13.950Z,9.30
2018-04-01T21:16:42.201Z,9.20
2018-04-01T21:19:09.717Z,9.20
2018-04-01T21:21:37.959Z,9.20
2018-04-01T21:24:05.473Z,9.20
2018-04-01T21:26:33.722Z,9.20
2018-04-01T21:29:01.220Z,9.10
2018-04-01T21:31:29.468Z,9.10
2018-04-01T21:33:56.974Z,9.10
2018-04-01T21:36:24.459Z,9.10
2018-04-01T21:38:52.741Z,9.10
2018-04-01T21:41:20.993Z,9.10
2018-04-01T21:43:48.513Z,9.10
2018-04-01T21:46:16.758Z,9.20
2018-04-01T21:48:44.259Z,9.10
2018-04-01T21:51:12.512Z,9.20
2018-04-01T21:53:40.044Z,9.10
2018-04-01T21:56:07.540Z,9.20
2018-04-01T21:58:35.022Z,9.20
2018-04-01T22:01:02.524Z,9.10
2018-04-01T22:03:30.776Z,9.10
2018-04-01T22:05:58.275Z,9.10
2018-04-01T22:08:25.759Z,9.10
2018-04-01T22:10:53.292Z,9.20
2018-04-01T22:13:20.774Z,9.10
2018-04-01T22:15:48.286Z,9.10
2018-04-01T22:18:15.772Z,9.10
2018-04-01T22:20:43.276Z,9.10
2018-04-01T22:23:12.559Z,9.10
2018-04-01T22:25:40.825Z,9.10
2018-04-01T22:28:08.301Z,9.00
2018-04-01T22:30:35.811Z,9.00
2018-04-01T22:33:03.300Z,9.10
2018-04-01T22:35:30.816Z,9.00
2018-04-01T22:37:58.313Z,9.00
2018-04-01T22:40:25.808Z,8.90
2018-04-01T22:42:53.314Z,9.00
2018-04-01T22:45:20.800Z,9.00
2018-04-01T22:47:48.307Z,9.00
2018-04-01T22:50:15.791Z,9.10
2018-04-01T22:52:43.300Z,9.10
2018-04-01T22:55:10.792Z,9.00
2018-04-01T22:57:38.299Z,9.10
2018-04-01T23:00:05.794Z,9.10
2018-04-01T23:02:34.069Z,9.00
2018-04-01T23:05:02.333Z,9.00
2018-04-01T23:07:29.830Z,9.00
2018-04-01T23:09:58.075Z,9.10
2018-04-01T23:12:25.591Z,9.10
2018-04-01T23:14:53.844Z,9.10
2018-04-01T23:17:21.335Z,9.10
2018-04-01T23:19:48.839Z,9.10
2018-04-01T23:22:16.332Z,9.00
2018-04-01T23:24:43.840Z,8.90
2018-04-01T23:27:11.328Z,9.10
2018-04-01T23:29:39.599Z,9.00
2018-04-01T23:32:07.087Z,9.00
2018-04-01T23:34:35.364Z,9.00
2018-04-01T23:37:02.845Z,8.90
2018-04-01T23:39:31.122Z,8.90
2018-04-01T23:41:58.618Z,8.90
2018-04-01T23:44:26.886Z,8.70
2018-04-01T23:46:54.370Z,8.60
2018-04-01T23:49:22.652Z,8.50
2018-04-01T23:51:50.907Z,8.50
2018-04-01T23:54:18.396Z,8.40
2018-04-01T23:56:45.902Z,8.40
2018-04-01T23:59:13.392Z,8.40
